sensor_id;sensor_type;location;lat;lon;timestamp;P1;durP1;ratioP1;P2;durP2;ratioP2
60078;SDS011;45951;45.824;8.824;2024-02-21T00:01:17;1.13;;;0.77;;
60078;SDS011;45951;45.824;8.824;2024-02-21T00:02:57;1.48;;;0.90;;
60078;SDS011;45951;45.824;8.824;2024-02-21T00:04:39;1.55;;;0.77;;
60078;SDS011;45951;45.824;8.824;2024-02-21T00:06:19;1.20;;;0.70;;
60078;SDS011;45951;45.824;8.824;2024-02-21T00:07:59;1.20;;;1.00;;
60078;SDS011;45951;45.824;8.824;2024-02-21T00:09:40;0.73;;;0.70;;
60078;SDS011;45951;45.824;8.824;2024-02-21T00:11:20;1.97;;;1.20;;
60078;SDS011;45951;45.824;8.824;2024-02-21T00:13:00;1.00;;;0.90;;
60078;SDS011;45951;45.824;8.824;2024-02-21T00:14:41;2.63;;;0.80;;
60078;SDS011;45951;45.824;8.824;2024-02-21T00:16:21;1.73;;;0.80;;
60078;SDS011;45951;45.824;8.824;2024-02-21T00:18:01;1.20;;;0.80;;
60078;SDS011;45951;45.824;8.824;2024-02-21T00:19:41;2.03;;;0.90;;
60078;SDS011;45951;45.824;8.824;2024-02-21T00:21:21;3.07;;;1.23;;
60078;SDS011;45951;45.824;8.824;2024-02-21T00:23:02;2.20;;;1.20;;
60078;SDS011;45951;45.824;8.824;2024-02-21T00:24:42;1.52;;;0.75;;
60078;SDS011;45951;45.824;8.824;2024-02-21T00:26:22;2.33;;;1.13;;
60078;SDS011;45951;45.824;8.824;2024-02-21T00:28:02;2.65;;;1.55;;
60078;SDS011;45951;45.824;8.824;2024-02-21T00:29:43;2.17;;;1.30;;
60078;SDS011;45951;45.824;8.824;2024-02-21T00:31:23;2.00;;;1.30;;
60078;SDS011;45951;45.824;8.824;2024-02-21T00:33:03;1.85;;;1.30;;
60078;SDS011;45951;45.824;8.824;2024-02-21T00:34:43;1.90;;;1.05;;
60078;SDS011;45951;45.824;8.824;2024-02-21T00:36:24;2.70;;;1.13;;
60078;SDS011;45951;45.824;8.824;2024-02-21T00:38:04;2.20;;;1.40;;
60078;SDS011;45951;45.824;8.824;2024-02-21T00:39:44;1.87;;;1.10;;
60078;SDS011;45951;45.824;8.824;2024-02-21T00:41:24;2.03;;;0.95;;
60078;SDS011;45951;45.824;8.824;2024-02-21T00:43:04;1.10;;;0.95;;
60078;SDS011;45951;45.824;8.824;2024-02-21T00:44:45;1.88;;;1.10;;
60078;SDS011;45951;45.824;8.824;2024-02-21T00:46:25;2.30;;;0.90;;
60078;SDS011;45951;45.824;8.824;2024-02-21T00:48:05;1.03;;;0.70;;
60078;SDS011;45951;45.824;8.824;2024-02-21T00:49:45;1.83;;;0.70;;
60078;SDS011;45951;45.824;8.824;2024-02-21T00:51:26;1.38;;;1.00;;
60078;SDS011;45951;45.824;8.824;2024-02-21T00:53:06;1.10;;;0.70;;
60078;SDS011;45951;45.824;8.824;2024-02-21T00:54:46;0.93;;;0.70;;
60078;SDS011;45951;45.824;8.824;2024-02-21T00:56:26;0.70;;;0.70;;
60078;SDS011;45951;45.824;8.824;2024-02-21T00:58:06;2.13;;;0.70;;
60078;SDS011;45951;45.824;8.824;2024-02-21T00:59:47;0.60;;;0.60;;
60078;SDS011;45951;45.824;8.824;2024-02-21T01:01:27;2.40;;;0.83;;
60078;SDS011;45951;45.824;8.824;2024-02-21T01:03:07;0.63;;;0.57;;
60078;SDS011;45951;45.824;8.824;2024-02-21T01:04:47;1.87;;;0.70;;
60078;SDS011;45951;45.824;8.824;2024-02-21T01:06:27;0.70;;;0.70;;
60078;SDS011;45951;45.824;8.824;2024-02-21T01:08:08;1.73;;;0.80;;
60078;SDS011;45951;45.824;8.824;2024-02-21T01:09:48;0.83;;;0.60;;
60078;SDS011;45951;45.824;8.824;2024-02-21T01:11:28;0.63;;;0.60;;
60078;SDS011;45951;45.824;8.824;2024-02-21T01:13:08;0.83;;;0.70;;
60078;SDS011;45951;45.824;8.824;2024-02-21T01:14:48;0.77;;;0.70;;
60078;SDS011;45951;45.824;8.824;2024-02-21T01:16:29;0.80;;;0.65;;
60078;SDS011;45951;45.824;8.824;2024-02-21T01:18:09;0.90;;;0.80;;
60078;SDS011;45951;45.824;8.824;2024-02-21T01:19:49;0.90;;;0.70;;
60078;SDS011;45951;45.824;8.824;2024-02-21T01:21:30;0.93;;;0.60;;
60078;SDS011;45951;45.824;8.824;2024-02-21T01:23:10;0.65;;;0.65;;
60078;SDS011;45951;45.824;8.824;2024-02-21T01:24:50;0.70;;;0.50;;
60078;SDS011;45951;45.824;8.824;2024-02-21T01:26:30;1.93;;;0.80;;
60078;SDS011;45951;45.824;8.824;2024-02-21T01:28:10;0.60;;;0.60;;
60078;SDS011;45951;45.824;8.824;2024-02-21T01:29:50;0.80;;;0.60;;
60078;SDS011;45951;45.824;8.824;2024-02-21T01:31:31;0.70;;;0.50;;
60078;SDS011;45951;45.824;8.824;2024-02-21T01:33:11;1.03;;;0.70;;
60078;SDS011;45951;45.824;8.824;2024-02-21T01:34:51;1.00;;;0.63;;
60078;SDS011;45951;45.824;8.824;2024-02-21T01:36:31;0.60;;;0.60;;
60078;SDS011;45951;45.824;8.824;2024-02-21T01:38:12;0.83;;;0.80;;
60078;SDS011;45951;45.824;8.824;2024-02-21T01:39:53;1.08;;;0.70;;
60078;SDS011;45951;45.824;8.824;2024-02-21T01:41:33;0.75;;;0.65;;
60078;SDS011;45951;45.824;8.824;2024-02-21T01:43:17;0.80;;;0.70;;
60078;SDS011;45951;45.824;8.824;2024-02-21T01:44:57;0.65;;;0.60;;
60078;SDS011;45951;45.824;8.824;2024-02-21T01:46:38;1.73;;;0.80;;
60078;SDS011;45951;45.824;8.824;2024-02-21T01:48:18;0.57;;;0.53;;
60078;SDS011;45951;45.824;8.824;2024-02-21T01:49:59;0.85;;;0.85;;
60078;SDS011;45951;45.824;8.824;2024-02-21T01:51:39;0.63;;;0.60;;
60078;SDS011;45951;45.824;8.824;2024-02-21T01:53:21;0.98;;;0.82;;
60078;SDS011;45951;45.824;8.824;2024-02-21T01:55:01;0.75;;;0.75;;
60078;SDS011;45951;45.824;8.824;2024-02-21T01:56:42;2.45;;;1.00;;
60078;SDS011;45951;45.824;8.824;2024-02-21T01:58:22;1.65;;;1.00;;
60078;SDS011;45951;45.824;8.824;2024-02-21T02:00:03;1.25;;;0.70;;
60078;SDS011;45951;45.824;8.824;2024-02-21T02:01:44;1.15;;;1.00;;
60078;SDS011;45951;45.824;8.824;2024-02-21T02:03:26;1.13;;;0.80;;
60078;SDS011;45951;45.824;8.824;2024-02-21T02:05:07;2.33;;;1.10;;
60078;SDS011;45951;45.824;8.824;2024-02-21T02:06:47;1.73;;;0.88;;
60078;SDS011;45951;45.824;8.824;2024-02-21T02:08:28;1.23;;;0.88;;
60078;SDS011;45951;45.824;8.824;2024-02-21T02:10:09;1.70;;;0.88;;
60078;SDS011;45951;45.824;8.824;2024-02-21T02:11:50;1.92;;;0.80;;
60078;SDS011;45951;45.824;8.824;2024-02-21T02:13:30;1.27;;;0.90;;
60078;SDS011;45951;45.824;8.824;2024-02-21T02:15:10;1.07;;;0.83;;
60078;SDS011;45951;45.824;8.824;2024-02-21T02:16:50;2.23;;;1.10;;
60078;SDS011;45951;45.824;8.824;2024-02-21T02:18:31;1.60;;;0.70;;
60078;SDS011;45951;45.824;8.824;2024-02-21T02:20:11;1.90;;;1.10;;
60078;SDS011;45951;45.824;8.824;2024-02-21T02:21:53;2.05;;;1.05;;
60078;SDS011;45951;45.824;8.824;2024-02-21T02:23:36;1.42;;;1.00;;
60078;SDS011;45951;45.824;8.824;2024-02-21T02:25:16;2.30;;;1.07;;
60078;SDS011;45951;45.824;8.824;2024-02-21T02:26:56;1.23;;;0.80;;
60078;SDS011;45951;45.824;8.824;2024-02-21T02:28:36;3.23;;;1.20;;
60078;SDS011;45951;45.824;8.824;2024-02-21T02:30:17;1.60;;;0.80;;
60078;SDS011;45951;45.824;8.824;2024-02-21T02:31:57;2.13;;;0.97;;
60078;SDS011;45951;45.824;8.824;2024-02-21T02:33:37;2.47;;;0.87;;
60078;SDS011;45951;45.824;8.824;2024-02-21T02:35:17;2.43;;;1.10;;
60078;SDS011;45951;45.824;8.824;2024-02-21T02:36:57;1.63;;;0.93;;
60078;SDS011;45951;45.824;8.824;2024-02-21T02:38:37;1.23;;;1.07;;
60078;SDS011;45951;45.824;8.824;2024-02-21T02:40:18;2.17;;;1.10;;
60078;SDS011;45951;45.824;8.824;2024-02-21T02:41:58;1.50;;;1.05;;
60078;SDS011;45951;45.824;8.824;2024-02-21T02:43:38;2.30;;;1.25;;
60078;SDS011;45951;45.824;8.824;2024-02-21T02:45:19;1.20;;;1.10;;
60078;SDS011;45951;45.824;8.824;2024-02-21T02:46:59;1.77;;;1.10;;
60078;SDS011;45951;45.824;8.824;2024-02-21T02:48:39;0.60;;;0.60;;
60078;SDS011;45951;45.824;8.824;2024-02-21T02:50:19;0.68;;;0.60;;
60078;SDS011;45951;45.824;8.824;2024-02-21T02:51:59;1.42;;;0.82;;
60078;SDS011;45951;45.824;8.824;2024-02-21T02:53:40;0.70;;;0.70;;
60078;SDS011;45951;45.824;8.824;2024-02-21T02:55:20;1.33;;;0.90;;
60078;SDS011;45951;45.824;8.824;2024-02-21T02:57:00;0.77;;;0.52;;
60078;SDS011;45951;45.824;8.824;2024-02-21T02:58:40;1.23;;;0.50;;
60078;SDS011;45951;45.824;8.824;2024-02-21T03:00:20;1.50;;;1.03;;
60078;SDS011;45951;45.824;8.824;2024-02-21T03:02:01;1.10;;;0.68;;
60078;SDS011;45951;45.824;8.824;2024-02-21T03:03:41;1.53;;;0.77;;
60078;SDS011;45951;45.824;8.824;2024-02-21T03:05:24;1.13;;;0.77;;
60078;SDS011;45951;45.824;8.824;2024-02-21T03:07:04;0.82;;;0.77;;
60078;SDS011;45951;45.824;8.824;2024-02-21T03:08:45;1.05;;;0.80;;
60078;SDS011;45951;45.824;8.824;2024-02-21T03:10:25;1.77;;;0.93;;
60078;SDS011;45951;45.824;8.824;2024-02-21T03:12:05;0.82;;;0.65;;
60078;SDS011;45951;45.824;8.824;2024-02-21T03:13:46;1.15;;;0.70;;
60078;SDS011;45951;45.824;8.824;2024-02-21T03:15:26;0.87;;;0.70;;
60078;SDS011;45951;45.824;8.824;2024-02-21T03:17:06;1.08;;;0.90;;
60078;SDS011;45951;45.824;8.824;2024-02-21T03:18:46;0.60;;;0.50;;
60078;SDS011;45951;45.824;8.824;2024-02-21T03:20:27;1.80;;;1.00;;
60078;SDS011;45951;45.824;8.824;2024-02-21T03:22:07;1.60;;;0.83;;
60078;SDS011;45951;45.824;8.824;2024-02-21T03:23:47;1.60;;;1.17;;
60078;SDS011;45951;45.824;8.824;2024-02-21T03:25:27;2.53;;;1.30;;
60078;SDS011;45951;45.824;8.824;2024-02-21T03:27:08;1.30;;;0.90;;
60078;SDS011;45951;45.824;8.824;2024-02-21T03:28:48;2.45;;;1.00;;
60078;SDS011;45951;45.824;8.824;2024-02-21T03:30:28;1.95;;;1.08;;
60078;SDS011;45951;45.824;8.824;2024-02-21T03:32:09;1.38;;;0.90;;
60078;SDS011;45951;45.824;8.824;2024-02-21T03:33:49;2.15;;;0.85;;
60078;SDS011;45951;45.824;8.824;2024-02-21T03:35:30;2.00;;;0.95;;
60078;SDS011;45951;45.824;8.824;2024-02-21T03:37:10;1.90;;;0.95;;
60078;SDS011;45951;45.824;8.824;2024-02-21T03:38:50;3.47;;;1.00;;
60078;SDS011;45951;45.824;8.824;2024-02-21T03:40:30;2.17;;;1.23;;
60078;SDS011;45951;45.824;8.824;2024-02-21T03:42:11;3.22;;;1.20;;
60078;SDS011;45951;45.824;8.824;2024-02-21T03:43:51;2.28;;;1.10;;
60078;SDS011;45951;45.824;8.824;2024-02-21T03:45:31;2.53;;;1.10;;
60078;SDS011;45951;45.824;8.824;2024-02-21T03:47:11;2.10;;;1.00;;
60078;SDS011;45951;45.824;8.824;2024-02-21T03:48:52;2.88;;;1.17;;
60078;SDS011;45951;45.824;8.824;2024-02-21T03:50:32;4.37;;;1.33;;
60078;SDS011;45951;45.824;8.824;2024-02-21T03:52:12;2.47;;;1.10;;
60078;SDS011;45951;45.824;8.824;2024-02-21T03:53:52;2.03;;;1.23;;
60078;SDS011;45951;45.824;8.824;2024-02-21T03:55:32;1.92;;;0.93;;
60078;SDS011;45951;45.824;8.824;2024-02-21T03:57:13;2.37;;;1.23;;
60078;SDS011;45951;45.824;8.824;2024-02-21T03:58:53;2.23;;;1.10;;
60078;SDS011;45951;45.824;8.824;2024-02-21T04:00:33;1.50;;;0.90;;
60078;SDS011;45951;45.824;8.824;2024-02-21T04:02:13;1.57;;;1.00;;
60078;SDS011;45951;45.824;8.824;2024-02-21T04:03:53;2.33;;;1.10;;
60078;SDS011;45951;45.824;8.824;2024-02-21T04:05:33;1.83;;;0.97;;
60078;SDS011;45951;45.824;8.824;2024-02-21T04:07:14;2.33;;;1.10;;
60078;SDS011;45951;45.824;8.824;2024-02-21T04:08:54;1.55;;;1.05;;
60078;SDS011;45951;45.824;8.824;2024-02-21T04:10:34;1.42;;;1.05;;
60078;SDS011;45951;45.824;8.824;2024-02-21T04:12:15;3.00;;;1.30;;
60078;SDS011;45951;45.824;8.824;2024-02-21T04:13:55;1.47;;;0.90;;
60078;SDS011;45951;45.824;8.824;2024-02-21T04:15:35;2.10;;;1.20;;
60078;SDS011;45951;45.824;8.824;2024-02-21T04:17:16;1.65;;;1.13;;
60078;SDS011;45951;45.824;8.824;2024-02-21T04:18:56;2.00;;;0.90;;
60078;SDS011;45951;45.824;8.824;2024-02-21T04:20:36;1.07;;;0.97;;
60078;SDS011;45951;45.824;8.824;2024-02-21T04:22:16;1.37;;;0.80;;
60078;SDS011;45951;45.824;8.824;2024-02-21T04:23:56;1.70;;;1.10;;
60078;SDS011;45951;45.824;8.824;2024-02-21T04:25:37;1.45;;;0.85;;
60078;SDS011;45951;45.824;8.824;2024-02-21T04:27:17;2.27;;;1.20;;
60078;SDS011;45951;45.824;8.824;2024-02-21T04:28:57;5.10;;;1.03;;
60078;SDS011;45951;45.824;8.824;2024-02-21T04:30:37;1.25;;;0.80;;
60078;SDS011;45951;45.824;8.824;2024-02-21T04:32:17;1.90;;;0.83;;
60078;SDS011;45951;45.824;8.824;2024-02-21T04:33:57;2.93;;;0.83;;
60078;SDS011;45951;45.824;8.824;2024-02-21T04:35:38;2.70;;;1.10;;
60078;SDS011;45951;45.824;8.824;2024-02-21T04:37:19;3.40;;;1.02;;
60078;SDS011;45951;45.824;8.824;2024-02-21T04:39:00;1.35;;;1.13;;
60078;SDS011;45951;45.824;8.824;2024-02-21T04:40:40;1.17;;;1.03;;
60078;SDS011;45951;45.824;8.824;2024-02-21T04:42:20;1.73;;;1.10;;
60078;SDS011;45951;45.824;8.824;2024-02-21T04:44:00;1.37;;;1.00;;
60078;SDS011;45951;45.824;8.824;2024-02-21T04:45:41;1.73;;;1.10;;
60078;SDS011;45951;45.824;8.824;2024-02-21T04:47:21;1.40;;;1.00;;
60078;SDS011;45951;45.824;8.824;2024-02-21T04:49:03;2.05;;;1.20;;
60078;SDS011;45951;45.824;8.824;2024-02-21T04:50:43;1.87;;;0.87;;
60078;SDS011;45951;45.824;8.824;2024-02-21T04:52:24;1.07;;;0.80;;
60078;SDS011;45951;45.824;8.824;2024-02-21T04:54:04;1.17;;;0.90;;
60078;SDS011;45951;45.824;8.824;2024-02-21T04:55:44;4.97;;;0.90;;
60078;SDS011;45951;45.824;8.824;2024-02-21T04:57:24;4.45;;;1.13;;
60078;SDS011;45951;45.824;8.824;2024-02-21T04:59:05;2.53;;;1.00;;
60078;SDS011;45951;45.824;8.824;2024-02-21T05:00:45;2.03;;;1.00;;
60078;SDS011;45951;45.824;8.824;2024-02-21T05:02:25;3.73;;;0.97;;
60078;SDS011;45951;45.824;8.824;2024-02-21T05:04:06;2.92;;;1.60;;
60078;SDS011;45951;45.824;8.824;2024-02-21T05:05:46;1.73;;;0.83;;
60078;SDS011;45951;45.824;8.824;2024-02-21T05:07:26;0.98;;;0.88;;
60078;SDS011;45951;45.824;8.824;2024-02-21T05:09:07;1.23;;;0.70;;
60078;SDS011;45951;45.824;8.824;2024-02-21T05:10:48;1.13;;;0.80;;
60078;SDS011;45951;45.824;8.824;2024-02-21T05:12:28;2.20;;;1.00;;
60078;SDS011;45951;45.824;8.824;2024-02-21T05:14:10;1.35;;;0.80;;
60078;SDS011;45951;45.824;8.824;2024-02-21T05:15:50;1.20;;;0.67;;
60078;SDS011;45951;45.824;8.824;2024-02-21T05:17:30;1.67;;;0.83;;
60078;SDS011;45951;45.824;8.824;2024-02-21T05:19:10;3.70;;;1.00;;
60078;SDS011;45951;45.824;8.824;2024-02-21T05:20:50;1.53;;;1.13;;
60078;SDS011;45951;45.824;8.824;2024-02-21T05:22:31;3.00;;;1.27;;
60078;SDS011;45951;45.824;8.824;2024-02-21T05:24:11;3.03;;;1.13;;
60078;SDS011;45951;45.824;8.824;2024-02-21T05:25:51;3.58;;;1.05;;
60078;SDS011;45951;45.824;8.824;2024-02-21T05:27:31;3.30;;;1.27;;
60078;SDS011;45951;45.824;8.824;2024-02-21T05:29:11;1.85;;;0.80;;
60078;SDS011;45951;45.824;8.824;2024-02-21T05:30:52;4.47;;;1.10;;
60078;SDS011;45951;45.824;8.824;2024-02-21T05:32:32;1.73;;;1.10;;
60078;SDS011;45951;45.824;8.824;2024-02-21T05:34:12;3.00;;;1.10;;
60078;SDS011;45951;45.824;8.824;2024-02-21T05:35:52;3.10;;;1.33;;
60078;SDS011;45951;45.824;8.824;2024-02-21T05:37:32;2.17;;;1.20;;
60078;SDS011;45951;45.824;8.824;2024-02-21T05:39:13;2.37;;;0.90;;
60078;SDS011;45951;45.824;8.824;2024-02-21T05:40:53;4.82;;;1.80;;
60078;SDS011;45951;45.824;8.824;2024-02-21T05:42:33;4.37;;;2.10;;
60078;SDS011;45951;45.824;8.824;2024-02-21T05:44:13;7.97;;;1.93;;
60078;SDS011;45951;45.824;8.824;2024-02-21T05:45:53;6.40;;;1.80;;
60078;SDS011;45951;45.824;8.824;2024-02-21T05:47:34;2.90;;;1.50;;
60078;SDS011;45951;45.824;8.824;2024-02-21T05:49:14;3.35;;;1.60;;
60078;SDS011;45951;45.824;8.824;2024-02-21T05:50:55;3.67;;;1.47;;
60078;SDS011;45951;45.824;8.824;2024-02-21T05:52:35;3.08;;;1.15;;
60078;SDS011;45951;45.824;8.824;2024-02-21T05:54:15;1.10;;;1.00;;
60078;SDS011;45951;45.824;8.824;2024-02-21T05:55:55;2.33;;;1.23;;
60078;SDS011;45951;45.824;8.824;2024-02-21T05:57:35;3.50;;;1.37;;
60078;SDS011;45951;45.824;8.824;2024-02-21T05:59:16;3.83;;;1.40;;
60078;SDS011;45951;45.824;8.824;2024-02-21T06:00:56;3.87;;;1.57;;
60078;SDS011;45951;45.824;8.824;2024-02-21T06:02:36;3.73;;;1.53;;
60078;SDS011;45951;45.824;8.824;2024-02-21T06:04:16;6.53;;;1.80;;
60078;SDS011;45951;45.824;8.824;2024-02-21T06:05:56;7.93;;;1.97;;
60078;SDS011;45951;45.824;8.824;2024-02-21T06:07:36;4.77;;;1.57;;
60078;SDS011;45951;45.824;8.824;2024-02-21T06:09:17;5.03;;;1.47;;
60078;SDS011;45951;45.824;8.824;2024-02-21T06:10:57;3.42;;;1.50;;
60078;SDS011;45951;45.824;8.824;2024-02-21T06:12:37;4.97;;;1.27;;
60078;SDS011;45951;45.824;8.824;2024-02-21T06:14:17;1.73;;;1.17;;
60078;SDS011;45951;45.824;8.824;2024-02-21T06:15:57;2.73;;;1.30;;
60078;SDS011;45951;45.824;8.824;2024-02-21T06:17:37;3.87;;;1.83;;
60078;SDS011;45951;45.824;8.824;2024-02-21T06:19:18;4.38;;;1.75;;
60078;SDS011;45951;45.824;8.824;2024-02-21T06:20:58;4.87;;;1.90;;
60078;SDS011;45951;45.824;8.824;2024-02-21T06:22:38;7.95;;;2.10;;
60078;SDS011;45951;45.824;8.824;2024-02-21T06:24:18;7.40;;;2.20;;
60078;SDS011;45951;45.824;8.824;2024-02-21T06:25:59;4.68;;;1.90;;
60078;SDS011;45951;45.824;8.824;2024-02-21T06:27:39;5.00;;;1.88;;
60078;SDS011;45951;45.824;8.824;2024-02-21T06:29:19;3.23;;;1.80;;
60078;SDS011;45951;45.824;8.824;2024-02-21T06:30:59;4.53;;;2.03;;
60078;SDS011;45951;45.824;8.824;2024-02-21T06:32:39;3.57;;;1.60;;
60078;SDS011;45951;45.824;8.824;2024-02-21T06:34:19;5.90;;;2.00;;
60078;SDS011;45951;45.824;8.824;2024-02-21T06:36:00;6.17;;;2.33;;
60078;SDS011;45951;45.824;8.824;2024-02-21T06:37:40;6.27;;;2.10;;
60078;SDS011;45951;45.824;8.824;2024-02-21T06:39:20;8.13;;;2.00;;
60078;SDS011;45951;45.824;8.824;2024-02-21T06:41:01;4.85;;;1.90;;
60078;SDS011;45951;45.824;8.824;2024-02-21T06:42:42;4.57;;;2.22;;
60078;SDS011;45951;45.824;8.824;2024-02-21T06:44:22;5.67;;;2.20;;
60078;SDS011;45951;45.824;8.824;2024-02-21T06:46:03;4.88;;;2.78;;
60078;SDS011;45951;45.824;8.824;2024-02-21T06:47:43;6.03;;;3.45;;
60078;SDS011;45951;45.824;8.824;2024-02-21T06:49:23;4.50;;;2.30;;
60078;SDS011;45951;45.824;8.824;2024-02-21T06:51:03;4.85;;;2.10;;
60078;SDS011;45951;45.824;8.824;2024-02-21T06:52:44;4.30;;;1.75;;
60078;SDS011;45951;45.824;8.824;2024-02-21T06:54:24;4.63;;;1.70;;
60078;SDS011;45951;45.824;8.824;2024-02-21T06:56:04;4.55;;;1.73;;
60078;SDS011;45951;45.824;8.824;2024-02-21T06:57:44;3.25;;;1.50;;
60078;SDS011;45951;45.824;8.824;2024-02-21T06:59:25;4.30;;;1.85;;
60078;SDS011;45951;45.824;8.824;2024-02-21T07:01:05;2.97;;;1.57;;
60078;SDS011;45951;45.824;8.824;2024-02-21T07:02:45;6.75;;;1.80;;
60078;SDS011;45951;45.824;8.824;2024-02-21T07:04:25;4.20;;;1.47;;
60078;SDS011;45951;45.824;8.824;2024-02-21T07:06:06;2.47;;;1.42;;
60078;SDS011;45951;45.824;8.824;2024-02-21T07:07:46;4.43;;;1.53;;
60078;SDS011;45951;45.824;8.824;2024-02-21T07:09:26;4.47;;;2.37;;
60078;SDS011;45951;45.824;8.824;2024-02-21T07:11:08;4.22;;;1.70;;
60078;SDS011;45951;45.824;8.824;2024-02-21T07:12:49;2.95;;;1.45;;
60078;SDS011;45951;45.824;8.824;2024-02-21T07:14:29;3.50;;;2.00;;
60078;SDS011;45951;45.824;8.824;2024-02-21T07:16:09;3.13;;;1.87;;
60078;SDS011;45951;45.824;8.824;2024-02-21T07:17:49;3.80;;;1.80;;
60078;SDS011;45951;45.824;8.824;2024-02-21T07:19:29;4.40;;;1.70;;
60078;SDS011;45951;45.824;8.824;2024-02-21T07:21:10;5.18;;;2.30;;
60078;SDS011;45951;45.824;8.824;2024-02-21T07:22:50;6.97;;;2.30;;
60078;SDS011;45951;45.824;8.824;2024-02-21T07:24:30;4.43;;;2.13;;
60078;SDS011;45951;45.824;8.824;2024-02-21T07:26:11;4.82;;;2.30;;
60078;SDS011;45951;45.824;8.824;2024-02-21T07:27:52;6.90;;;2.40;;
60078;SDS011;45951;45.824;8.824;2024-02-21T07:29:32;6.27;;;2.20;;
60078;SDS011;45951;45.824;8.824;2024-02-21T07:31:12;5.23;;;2.20;;
60078;SDS011;45951;45.824;8.824;2024-02-21T07:32:52;4.07;;;2.00;;
60078;SDS011;45951;45.824;8.824;2024-02-21T07:34:32;5.13;;;2.05;;
60078;SDS011;45951;45.824;8.824;2024-02-21T07:36:14;4.03;;;1.90;;
60078;SDS011;45951;45.824;8.824;2024-02-21T07:37:55;6.05;;;2.10;;
60078;SDS011;45951;45.824;8.824;2024-02-21T07:39:35;3.30;;;2.00;;
60078;SDS011;45951;45.824;8.824;2024-02-21T07:41:16;5.13;;;2.30;;
60078;SDS011;45951;45.824;8.824;2024-02-21T07:42:56;8.73;;;2.40;;
60078;SDS011;45951;45.824;8.824;2024-02-21T07:44:36;5.67;;;2.40;;
60078;SDS011;45951;45.824;8.824;2024-02-21T07:46:16;4.60;;;1.77;;
60078;SDS011;45951;45.824;8.824;2024-02-21T07:47:56;6.80;;;2.33;;
60078;SDS011;45951;45.824;8.824;2024-02-21T07:49:44;3.53;;;2.27;;
60078;SDS011;45951;45.824;8.824;2024-02-21T07:51:27;3.33;;;2.08;;
60078;SDS011;45951;45.824;8.824;2024-02-21T07:53:07;5.30;;;2.08;;
60078;SDS011;45951;45.824;8.824;2024-02-21T07:54:47;5.23;;;2.43;;
60078;SDS011;45951;45.824;8.824;2024-02-21T07:56:27;6.03;;;2.20;;
60078;SDS011;45951;45.824;8.824;2024-02-21T07:58:08;4.03;;;1.77;;
60078;SDS011;45951;45.824;8.824;2024-02-21T07:59:48;4.27;;;2.33;;
60078;SDS011;45951;45.824;8.824;2024-02-21T08:01:29;4.13;;;2.05;;
60078;SDS011;45951;45.824;8.824;2024-02-21T08:03:09;5.80;;;2.00;;
60078;SDS011;45951;45.824;8.824;2024-02-21T08:04:49;8.13;;;2.30;;
60078;SDS011;45951;45.824;8.824;2024-02-21T08:06:29;7.40;;;2.28;;
60078;SDS011;45951;45.824;8.824;2024-02-21T08:08:09;8.20;;;2.33;;
60078;SDS011;45951;45.824;8.824;2024-02-21T08:09:50;5.40;;;2.17;;
60078;SDS011;45951;45.824;8.824;2024-02-21T08:11:30;6.33;;;2.10;;
60078;SDS011;45951;45.824;8.824;2024-02-21T08:13:10;3.17;;;1.90;;
60078;SDS011;45951;45.824;8.824;2024-02-21T08:14:50;4.77;;;2.40;;
60078;SDS011;45951;45.824;8.824;2024-02-21T08:16:30;3.67;;;2.00;;
60078;SDS011;45951;45.824;8.824;2024-02-21T08:18:11;6.73;;;2.00;;
60078;SDS011;45951;45.824;8.824;2024-02-21T08:19:51;6.90;;;2.50;;
60078;SDS011;45951;45.824;8.824;2024-02-21T08:21:31;6.70;;;2.50;;
60078;SDS011;45951;45.824;8.824;2024-02-21T08:23:11;7.67;;;2.40;;
60078;SDS011;45951;45.824;8.824;2024-02-21T08:24:51;7.13;;;2.10;;
60078;SDS011;45951;45.824;8.824;2024-02-21T08:26:31;4.90;;;2.20;;
60078;SDS011;45951;45.824;8.824;2024-02-21T08:28:13;6.10;;;2.53;;
60078;SDS011;45951;45.824;8.824;2024-02-21T08:29:53;5.15;;;2.20;;
60078;SDS011;45951;45.824;8.824;2024-02-21T08:31:33;4.80;;;2.20;;
60078;SDS011;45951;45.824;8.824;2024-02-21T08:33:15;4.35;;;1.77;;
60078;SDS011;45951;45.824;8.824;2024-02-21T08:34:55;5.43;;;2.30;;
60078;SDS011;45951;45.824;8.824;2024-02-21T08:36:35;5.47;;;2.17;;
60078;SDS011;45951;45.824;8.824;2024-02-21T08:38:16;5.10;;;2.28;;
60078;SDS011;45951;45.824;8.824;2024-02-21T08:39:56;4.47;;;2.27;;
60078;SDS011;45951;45.824;8.824;2024-02-21T08:41:36;4.70;;;2.10;;
60078;SDS011;45951;45.824;8.824;2024-02-21T08:43:16;6.17;;;2.10;;
60078;SDS011;45951;45.824;8.824;2024-02-21T08:44:56;5.57;;;2.40;;
60078;SDS011;45951;45.824;8.824;2024-02-21T08:46:37;5.07;;;2.33;;
60078;SDS011;45951;45.824;8.824;2024-02-21T08:48:20;7.35;;;2.28;;
60078;SDS011;45951;45.824;8.824;2024-02-21T08:50:01;9.00;;;2.80;;
60078;SDS011;45951;45.824;8.824;2024-02-21T08:51:41;4.93;;;2.63;;
60078;SDS011;45951;45.824;8.824;2024-02-21T08:53:23;5.03;;;2.92;;
60078;SDS011;45951;45.824;8.824;2024-02-21T08:55:03;5.83;;;2.80;;
60078;SDS011;45951;45.824;8.824;2024-02-21T08:56:43;7.82;;;3.20;;
60078;SDS011;45951;45.824;8.824;2024-02-21T08:58:23;5.32;;;2.95;;
60078;SDS011;45951;45.824;8.824;2024-02-21T09:00:07;7.60;;;3.50;;
60078;SDS011;45951;45.824;8.824;2024-02-21T09:01:50;8.93;;;4.60;;
60078;SDS011;45951;45.824;8.824;2024-02-21T09:03:31;8.73;;;4.50;;
60078;SDS011;45951;45.824;8.824;2024-02-21T09:05:11;7.75;;;4.28;;
60078;SDS011;45951;45.824;8.824;2024-02-21T09:06:52;10.67;;;4.97;;
60078;SDS011;45951;45.824;8.824;2024-02-21T09:08:33;13.32;;;5.78;;
60078;SDS011;45951;45.824;8.824;2024-02-21T09:10:13;10.70;;;5.80;;
60078;SDS011;45951;45.824;8.824;2024-02-21T09:11:53;11.43;;;6.10;;
60078;SDS011;45951;45.824;8.824;2024-02-21T09:13:34;11.30;;;6.03;;
60078;SDS011;45951;45.824;8.824;2024-02-21T09:15:14;17.73;;;9.90;;
60078;SDS011;45951;45.824;8.824;2024-02-21T09:16:54;20.70;;;11.52;;
60078;SDS011;45951;45.824;8.824;2024-02-21T09:18:35;22.30;;;12.68;;
60078;SDS011;45951;45.824;8.824;2024-02-21T09:20:16;21.65;;;13.18;;
60078;SDS011;45951;45.824;8.824;2024-02-21T09:21:56;29.80;;;17.85;;
60078;SDS011;45951;45.824;8.824;2024-02-21T09:23:36;28.77;;;17.63;;
60078;SDS011;45951;45.824;8.824;2024-02-21T09:25:16;21.87;;;14.00;;
60078;SDS011;45951;45.824;8.824;2024-02-21T09:26:57;21.98;;;13.80;;
60078;SDS011;45951;45.824;8.824;2024-02-21T09:28:37;26.30;;;14.70;;
60078;SDS011;45951;45.824;8.824;2024-02-21T09:30:17;23.38;;;13.68;;
60078;SDS011;45951;45.824;8.824;2024-02-21T09:31:59;23.35;;;13.52;;
60078;SDS011;45951;45.824;8.824;2024-02-21T09:33:39;24.67;;;14.10;;
60078;SDS011;45951;45.824;8.824;2024-02-21T09:35:19;23.37;;;13.53;;
60078;SDS011;45951;45.824;8.824;2024-02-21T09:37:02;22.45;;;13.23;;
60078;SDS011;45951;45.824;8.824;2024-02-21T09:38:42;22.03;;;13.33;;
60078;SDS011;45951;45.824;8.824;2024-02-21T09:40:22;18.60;;;11.60;;
60078;SDS011;45951;45.824;8.824;2024-02-21T09:42:06;19.65;;;12.05;;
60078;SDS011;45951;45.824;8.824;2024-02-21T09:43:49;20.52;;;11.77;;
60078;SDS011;45951;45.824;8.824;2024-02-21T09:45:30;19.98;;;11.73;;
60078;SDS011;45951;45.824;8.824;2024-02-21T09:47:11;18.35;;;11.48;;
60078;SDS011;45951;45.824;8.824;2024-02-21T09:48:58;21.88;;;11.93;;
60078;SDS011;45951;45.824;8.824;2024-02-21T09:50:43;23.27;;;14.23;;
60078;SDS011;45951;45.824;8.824;2024-02-21T09:52:23;24.23;;;14.70;;
60078;SDS011;45951;45.824;8.824;2024-02-21T09:54:04;24.45;;;13.77;;
60078;SDS011;45951;45.824;8.824;2024-02-21T09:55:44;23.63;;;14.48;;
60078;SDS011;45951;45.824;8.824;2024-02-21T09:57:25;21.77;;;14.52;;
60078;SDS011;45951;45.824;8.824;2024-02-21T09:59:05;28.35;;;16.00;;
60078;SDS011;45951;45.824;8.824;2024-02-21T10:00:46;29.10;;;17.08;;
60078;SDS011;45951;45.824;8.824;2024-02-21T10:02:26;29.38;;;18.20;;
60078;SDS011;45951;45.824;8.824;2024-02-21T10:04:07;31.17;;;17.98;;